Time;durP1;ratioP1;P1;durP2;ratioP2;P2;SDS_P1;SDS_P2;PMS_P1;PMS_P2;Temp;Humidity;BMP_temperature;BMP_pressure;BME280_temperature;BME280_humidity;BME280_pressure;Samples;Min_cycle;Max_cycle;Signal;HPM_P1;HPM_P2
2022/06/17 00:00:27;;;;;;;27.60;26.03;;;20.40;56.10;;;;;;4968328;28;20566;-70
2022/06/17 00:02:54;;;;;;;27.60;26.03;;;20.40;56.40;;;;;;4966029;28;20472;-70
2022/06/17 00:05:21;;;;;;;27.40;25.87;;;20.40;57.10;;;;;;4972280;28;20542;-70
2022/06/17 00:07:49;;;;;;;26.90;25.37;;;20.30;57.60;;;;;;4961317;28;20565;-70
2022/06/17 00:10:22;;;;;;;26.97;25.60;;;20.20;57.60;;;;;;4971316;28;20482;-70
2022/06/17 00:12:49;;;;;;;26.83;25.33;;;20.20;57.70;;;;;;4969508;28;20621;-71
2022/06/17 00:15:18;;;;;;;27.27;25.83;;;20.10;58.10;;;;;;4966417;28;20488;-71
2022/06/17 00:17:48;;;;;;;27.60;26.10;;;20.00;58.30;;;;;;4962809;28;20484;-70
2022/06/17 00:20:19;;;;;;;27.97;26.20;;;20.00;58.20;;;;;;4977007;28;20480;-70
2022/06/17 00:22:46;;;;;;;27.80;26.30;;;20.00;58.50;;;;;;4964132;28;20470;-70
2022/06/17 00:25:25;;;;;;;27.63;26.07;;;20.00;58.30;;;;;;4965481;28;20463;-70
2022/06/17 00:27:54;;;;;;;27.73;26.20;;;19.90;58.50;;;;;;4956005;28;21506;-70
2022/06/17 00:30:25;;;;;;;27.10;25.70;;;19.90;58.60;;;;;;4973071;28;21012;-69
2022/06/17 00:32:56;;;;;;;27.50;26.00;;;19.70;59.10;;;;;;4971363;28;20634;-69
2022/06/17 00:35:23;;;;;;;27.27;25.87;;;19.70;59.10;;;;;;4968899;28;21094;-70
2022/06/17 00:37:51;;;;;;;27.50;25.90;;;19.70;58.10;;;;;;4960231;28;22956;-69
2022/06/17 00:40:23;;;;;;;27.00;25.60;;;19.70;58.80;;;;;;4961000;28;20576;-70
2022/06/17 00:42:51;;;;;;;27.40;25.80;;;19.70;58.80;;;;;;4980152;28;21363;-69
2022/06/17 00:45:27;;;;;;;27.50;26.10;;;19.70;58.90;;;;;;4962858;28;20502;-70
2022/06/17 00:48:02;;;;;;;27.97;26.47;;;19.70;59.00;;;;;;4964955;28;20517;-70
2022/06/17 00:50:36;;;;;;;28.70;27.20;;;19.60;59.10;;;;;;4967402;28;20581;-69
2022/06/17 00:53:14;;;;;;;28.83;27.10;;;19.60;59.40;;;;;;4963171;28;21228;-70
2022/06/17 00:55:45;;;;;;;28.00;26.40;;;19.60;59.40;;;;;;4964529;28;20961;-70
2022/06/17 00:58:21;;;;;;;27.10;25.70;;;19.50;59.70;;;;;;4961167;28;20490;-69
2022/06/17 01:00:53;;;;;;;27.10;25.70;;;19.40;59.90;;;;;;4973184;28;20481;-69
2022/06/17 01:03:23;;;;;;;26.93;25.43;;;19.40;60.30;;;;;;4968774;28;20467;-70
2022/06/17 01:05:55;;;;;;;27.10;25.67;;;19.30;60.60;;;;;;4966744;28;20598;-70
2022/06/17 01:11:13;;;;;;;27.53;26.10;;;19.20;60.90;;;;;;4963886;28;20451;-70
2022/06/17 01:13:41;;;;;;;27.70;26.20;;;19.10;61.40;;;;;;4965245;28;20491;-69
2022/06/17 01:16:09;;;;;;;27.50;26.10;;;19.00;61.50;;;;;;4966008;28;20475;-69
2022/06/17 01:18:42;;;;;;;28.30;26.80;;;19.00;61.50;;;;;;4970528;28;20581;-70
2022/06/17 01:21:16;;;;;;;27.83;26.23;;;19.00;61.40;;;;;;4964755;28;21072;-69
2022/06/17 01:23:45;;;;;;;26.63;25.23;;;19.00;61.20;;;;;;4966018;28;20490;-70
2022/06/17 01:26:12;;;;;;;27.57;25.83;;;18.90;61.50;;;;;;4974891;28;21127;-70
2022/06/17 01:28:39;;;;;;;26.90;25.40;;;18.70;62.40;;;;;;4961064;28;20566;-69
2022/06/17 01:31:10;;;;;;;27.90;26.40;;;18.70;62.60;;;;;;4977877;28;20968;-71
2022/06/17 01:33:39;;;;;;;27.83;26.23;;;18.70;62.70;;;;;;4966335;28;20467;-72
2022/06/17 01:36:10;;;;;;;28.13;26.53;;;18.60;62.80;;;;;;4973408;28;20485;-72
2022/06/17 01:38:40;;;;;;;28.07;26.57;;;18.60;62.80;;;;;;4961879;28;20866;-71
2022/06/17 01:41:08;;;;;;;27.97;26.27;;;18.50;63.20;;;;;;4966479;28;20482;-72
2022/06/17 01:43:43;;;;;;;28.53;27.03;;;18.40;63.30;;;;;;4972838;28;20487;-72
2022/06/17 01:46:14;;;;;;;28.17;26.70;;;18.50;63.10;;;;;;4963242;28;22053;-72
2022/06/17 01:48:47;;;;;;;28.53;27.00;;;18.30;64.00;;;;;;4965039;28;20556;-76
2022/06/17 01:51:15;;;;;;;27.40;25.93;;;18.30;64.20;;;;;;4972852;28;20542;-71
2022/06/17 01:53:47;;;;;;;27.87;26.37;;;18.30;64.00;;;;;;4962867;28;20932;-72
2022/06/17 01:56:19;;;;;;;27.57;26.17;;;18.30;63.90;;;;;;4974998;28;20475;-72
2022/06/17 01:58:50;;;;;;;28.30;26.70;;;18.20;64.20;;;;;;4967539;28;20472;-71
2022/06/17 02:01:18;;;;;;;27.50;26.10;;;18.20;64.30;;;;;;4963938;28;20604;-73
2022/06/17 02:03:52;;;;;;;26.93;25.57;;;18.20;64.50;;;;;;4976625;28;20816;-71
2022/06/17 02:06:23;;;;;;;26.50;25.10;;;18.10;64.70;;;;;;4960140;28;20506;-71
2022/06/17 02:08:52;;;;;;;27.33;25.83;;;18.10;65.00;;;;;;4958553;28;20464;-72
2022/06/17 02:11:20;;;;;;;27.30;25.70;;;18.00;65.20;;;;;;4966175;28;20560;-73
2022/06/17 02:13:48;;;;;;;26.50;25.10;;;18.00;65.50;;;;;;4963295;28;20559;-71
2022/06/17 02:16:16;;;;;;;28.03;26.40;;;18.00;65.60;;;;;;4957639;28;20558;-71
2022/06/17 02:18:45;;;;;;;27.10;25.70;;;17.90;65.90;;;;;;4961875;28;20558;-71
2022/06/17 02:21:19;;;;;;;27.33;25.73;;;17.80;66.40;;;;;;4970408;28;20511;-71
2022/06/17 02:23:46;;;;;;;27.37;25.57;;;17.80;66.70;;;;;;4969711;28;20550;-71
2022/06/17 02:26:14;;;;;;;27.70;25.90;;;17.70;66.70;;;;;;4981712;28;20567;-72
2022/06/17 02:28:43;;;;;;;27.50;26.10;;;17.60;67.10;;;;;;4960164;28;20642;-71
2022/06/17 02:31:13;;;;;;;26.70;25.20;;;17.60;67.30;;;;;;4975384;28;20547;-71
2022/06/17 02:33:41;;;;;;;26.60;25.23;;;17.50;67.30;;;;;;4965974;28;20565;-71
2022/06/17 02:36:14;;;;;;;28.67;27.07;;;17.50;67.60;;;;;;4971326;28;20622;-72
2022/06/17 02:38:42;;;;;;;26.90;25.50;;;17.40;67.90;;;;;;4968005;28;20473;-74
2022/06/17 02:41:16;;;;;;;27.60;26.00;;;17.40;67.80;;;;;;4968260;28;20487;-71
2022/06/17 02:43:48;;;;;;;27.10;25.70;;;17.40;67.80;;;;;;4968908;28;20471;-71
2022/06/17 02:46:21;;;;;;;27.40;25.83;;;17.30;67.60;;;;;;4973538;28;20485;-71
2022/06/17 02:48:52;;;;;;;27.90;26.10;;;17.30;67.60;;;;;;4966694;28;20467;-73
2022/06/17 02:51:19;;;;;;;26.93;25.43;;;17.20;67.80;;;;;;4980177;28;20542;-71
2022/06/17 02:53:47;;;;;;;27.20;25.70;;;17.20;68.10;;;;;;4965708;28;20481;-73
2022/06/17 02:56:18;;;;;;;26.43;25.03;;;17.10;68.10;;;;;;4976692;28;20538;-72
2022/06/17 02:58:55;;;;;;;28.20;26.70;;;17.20;68.00;;;;;;4957485;28;20550;-71
2022/06/17 03:01:24;;;;;;;28.67;27.00;;;17.20;68.00;;;;;;4972439;28;20479;-72
2022/06/17 03:03:54;;;;;;;27.87;26.20;;;17.00;68.70;;;;;;4965691;28;20467;-73
2022/06/17 03:06:27;;;;;;;27.77;26.27;;;16.90;69.30;;;;;;4972389;28;20502;-72
2022/06/17 03:08:55;;;;;;;27.40;26.00;;;16.80;69.60;;;;;;4956382;28;20467;-72
2022/06/17 03:11:22;;;;;;;32.23;30.37;;;16.80;69.90;;;;;;4967192;28;20493;-72
2022/06/17 03:13:54;;;;;;;27.27;25.70;;;16.90;69.60;;;;;;4963842;28;20546;-74
2022/06/17 03:16:23;;;;;;;27.90;26.30;;;16.90;69.40;;;;;;4967180;28;20514;-73
2022/06/17 03:18:51;;;;;;;28.40;26.70;;;16.90;69.40;;;;;;4961058;28;20824;-71
2022/06/17 03:21:23;;;;;;;26.63;25.13;;;16.90;69.40;;;;;;4969241;28;20582;-71
2022/06/17 03:23:58;;;;;;;37.27;35.30;;;16.90;69.40;;;;;;4962881;28;20538;-72
2022/06/17 03:26:30;;;;;;;31.93;30.23;;;16.90;69.30;;;;;;4963881;28;20563;-71
2022/06/17 03:29:03;;;;;;;28.23;26.67;;;16.90;69.50;;;;;;4970099;28;20462;-73
2022/06/17 03:31:34;;;;;;;30.80;29.00;;;17.00;69.40;;;;;;4968467;28;20485;-72
2022/06/17 03:34:04;;;;;;;28.20;26.60;;;17.00;69.10;;;;;;4962787;28;20545;-74
2022/06/17 03:36:36;;;;;;;28.20;26.20;;;17.00;69.00;;;;;;4968167;28;20494;-71
2022/06/17 03:39:08;;;;;;;27.77;26.17;;;17.10;68.80;;;;;;4966370;28;20502;-72
2022/06/17 03:41:43;;;;;;;29.50;27.80;;;17.20;68.60;;;;;;4952572;28;20486;-69
2022/06/17 03:44:15;;;;;;;27.63;25.97;;;17.40;68.30;;;;;;4963137;28;20543;-69
2022/06/17 03:46:47;;;;;;;28.67;27.07;;;17.30;68.00;;;;;;4956979;28;20482;-69
2022/06/17 03:49:18;;;;;;;26.90;25.40;;;17.30;68.20;;;;;;4973838;28;20462;-69
2022/06/17 03:51:45;;;;;;;27.47;25.97;;;17.50;68.40;;;;;;4973532;28;20558;-69
2022/06/17 03:54:14;;;;;;;30.10;28.10;;;18.00;67.10;;;;;;4971142;28;20558;-69
2022/06/17 03:56:50;;;;;;;28.30;26.80;;;18.60;65.30;;;;;;4964116;28;20573;-69
2022/06/17 03:59:23;;;;;;;31.70;29.70;;;19.10;63.50;;;;;;4968318;28;20545;-70
2022/06/17 04:01:56;;;;;;;29.13;27.53;;;19.50;62.50;;;;;;4973043;28;20487;-69
2022/06/17 04:04:26;;;;;;;29.37;27.37;;;19.50;62.30;;;;;;4965338;28;20466;-69
2022/06/17 04:06:55;;;;;;;27.83;26.13;;;19.40;62.60;;;;;;4975117;28;20503;-70
2022/06/17 04:09:25;;;;;;;31.80;29.90;;;19.20;62.90;;;;;;4966388;28;20550;-69
2022/06/17 04:11:57;;;;;;;27.83;26.23;;;19.00;63.60;;;;;;4971069;28;20861;-70
2022/06/17 04:14:30;;;;;;;29.20;27.40;;;18.80;65.00;;;;;;4966125;28;21100;-70
2022/06/17 04:17:04;;;;;;;29.07;27.37;;;18.60;65.30;;;;;;4964478;28;20571;-70
2022/06/17 04:19:32;;;;;;;31.53;29.73;;;18.70;64.80;;;;;;4972981;28;20457;-69
2022/06/17 04:22:03;;;;;;;29.90;27.90;;;18.60;64.80;;;;;;4966239;28;20570;-69
2022/06/17 04:24:31;;;;;;;28.70;27.10;;;18.30;65.50;;;;;;4967041;28;20555;-70
2022/06/17 04:27:03;;;;;;;28.17;26.50;;;18.20;66.10;;;;;;4973135;28;20841;-69
2022/06/17 04:29:37;;;;;;;30.30;28.50;;;18.10;66.60;;;;;;4972730;28;20496;-70
2022/06/17 04:32:11;;;;;;;28.83;26.87;;;18.00;67.10;;;;;;4964009;28;20490;-70
2022/06/17 04:34:38;;;;;;;31.80;30.00;;;18.00;67.20;;;;;;4967272;28;20594;-70
2022/06/17 04:37:12;;;;;;;28.37;26.67;;;18.10;67.80;;;;;;4970362;28;20553;-69
2022/06/17 04:39:45;;;;;;;29.70;28.00;;;18.10;67.40;;;;;;4968300;28;20471;-72
2022/06/17 04:42:17;;;;;;;33.47;31.80;;;18.10;67.20;;;;;;4971941;28;20562;-69
2022/06/17 04:44:46;;;;;;;29.10;27.50;;;18.10;67.30;;;;;;4957073;28;20557;-69
2022/06/17 04:47:16;;;;;;;36.87;34.47;;;18.20;67.20;;;;;;4964397;28;20570;-69
2022/06/17 04:49:46;;;;;;;29.67;27.70;;;18.20;68.50;;;;;;4968322;28;21066;-71
2022/06/17 04:52:23;;;;;;;28.50;26.87;;;18.20;67.50;;;;;;4969302;28;20455;-69
2022/06/17 04:54:50;;;;;;;27.48;25.77;;;18.30;67.40;;;;;;4964936;28;20948;-71
2022/06/17 04:57:18;;;;;;;33.00;30.90;;;18.40;67.10;;;;;;4960351;28;20222;-71
2022/06/17 04:59:47;;;;;;;30.30;28.50;;;18.40;67.80;;;;;;4965555;28;21079;-70
2022/06/17 05:02:18;;;;;;;28.40;26.70;;;18.40;68.00;;;;;;4964283;28;20480;-70
2022/06/17 05:04:46;;;;;;;30.87;29.17;;;18.50;67.20;;;;;;4969015;28;21146;-70
2022/06/17 05:07:15;;;;;;;32.40;30.50;;;18.50;67.10;;;;;;4963781;28;20479;-73
2022/06/17 05:09:47;;;;;;;28.50;26.90;;;18.50;67.50;;;;;;4975258;28;20462;-74
2022/06/17 05:12:21;;;;;;;29.03;27.43;;;18.60;67.20;;;;;;4974927;28;20554;-76
2022/06/17 05:15:02;;;;;;;28.90;27.10;;;18.70;67.20;;;;;;4975314;28;20467;-74
2022/06/17 05:17:30;;;;;;;29.80;28.00;;;18.70;67.30;;;;;;4963047;28;20486;-71
2022/06/17 05:19:57;;;;;;;29.57;27.80;;;18.80;66.80;;;;;;4971605;28;20459;-72
2022/06/17 05:22:30;;;;;;;30.23;28.40;;;18.70;66.90;;;;;;4967991;28;20502;-72
2022/06/17 05:24:58;;;;;;;29.60;27.80;;;18.80;67.10;;;;;;4972116;28;20459;-74
2022/06/17 05:27:25;;;;;;;29.57;27.67;;;18.80;66.90;;;;;;4968222;28;20562;-70
2022/06/17 05:29:53;;;;;;;30.63;28.87;;;19.00;67.50;;;;;;4971168;28;20610;-71
2022/06/17 05:32:21;;;;;;;27.63;25.92;;;19.00;67.50;;;;;;4959428;28;20477;-71
2022/06/17 05:34:50;;;;;;;32.57;30.77;;;19.40;66.70;;;;;;4979214;28;20287;-72
2022/06/17 05:37:17;;;;;;;29.73;28.13;;;19.40;66.70;;;;;;4963432;28;20563;-70
2022/06/17 05:39:47;;;;;;;32.30;30.50;;;19.60;65.70;;;;;;4974329;28;20475;-71
2022/06/17 05:42:14;;;;;;;30.60;28.80;;;19.70;64.90;;;;;;4968062;28;20562;-75
2022/06/17 05:44:41;;;;;;;30.50;28.80;;;19.80;64.30;;;;;;4968160;28;20467;-76
2022/06/17 05:47:10;;;;;;;29.93;28.13;;;19.90;63.20;;;;;;4976273;28;21031;-71
2022/06/17 05:49:36;;;;;;;30.47;28.30;;;20.00;63.00;;;;;;4966008;28;20557;-72
2022/06/17 05:52:04;;;;;;;30.87;29.07;;;20.20;62.70;;;;;;4972209;28;20497;-71
2022/06/17 05:54:31;;;;;;;28.77;27.17;;;20.40;62.00;;;;;;4972042;28;21115;-70
2022/06/17 05:56:58;;;;;;;29.47;27.77;;;20.50;60.50;;;;;;4968638;28;20481;-73
2022/06/17 05:59:25;;;;;;;30.40;28.60;;;20.70;59.50;;;;;;4963730;28;20466;-70
2022/06/17 06:01:52;;;;;;;30.23;28.53;;;20.90;58.50;;;;;;4970578;28;20565;-71
2022/06/17 06:04:21;;;;;;;29.87;28.17;;;21.00;58.60;;;;;;4967167;28;20459;-70
2022/06/17 06:06:48;;;;;;;29.43;27.57;;;21.10;59.00;;;;;;4964589;28;20484;-70
2022/06/17 06:09:15;;;;;;;29.20;27.23;;;21.20;57.90;;;;;;4956621;28;20468;-70
2022/06/17 06:11:42;;;;;;;28.40;26.55;;;21.20;57.50;;;;;;4963076;28;23219;-71
2022/06/17 06:14:09;;;;;;;29.60;27.70;;;21.40;57.00;;;;;;4964691;28;20279;-70
2022/06/17 06:16:38;;;;;;;31.80;29.70;;;21.50;57.00;;;;;;4971589;28;20548;-70
2022/06/17 06:19:05;;;;;;;28.93;27.30;;;21.70;56.60;;;;;;4964802;28;20598;-73
2022/06/17 06:21:34;;;;;;;28.37;26.67;;;21.80;55.70;;;;;;4970449;28;20951;-72
2022/06/17 06:24:01;;;;;;;29.67;28.07;;;21.80;55.80;;;;;;4968873;28;20565;-72
2022/06/17 06:26:28;;;;;;;29.90;28.20;;;21.90;55.50;;;;;;4969999;28;20669;-72
2022/06/17 06:28:56;;;;;;;29.00;27.30;;;22.00;54.80;;;;;;4957361;28;20459;-72
2022/06/17 06:31:26;;;;;;;31.97;30.07;;;22.00;55.70;;;;;;4974237;28;20535;-73
2022/06/17 06:33:53;;;;;;;30.27;28.10;;;22.00;55.40;;;;;;4970287;28;20486;-71
2022/06/17 06:36:21;;;;;;;28.00;26.40;;;22.20;55.20;;;;;;4969263;28;20601;-72
2022/06/17 06:38:49;;;;;;;31.30;29.00;;;22.20;54.90;;;;;;4967406;28;20561;-73
2022/06/17 06:41:17;;;;;;;29.13;27.47;;;22.20;55.00;;;;;;4970884;28;20510;-72
2022/06/17 06:43:45;;;;;;;29.40;27.60;;;22.20;55.10;;;;;;4969997;28;20785;-72
2022/06/17 06:46:16;;;;;;;29.00;27.20;;;22.10;55.50;;;;;;4964210;28;20518;-72
2022/06/17 06:48:43;;;;;;;28.17;26.47;;;22.00;55.30;;;;;;4967795;28;21047;-72
2022/06/17 06:51:10;;;;;;;28.80;27.10;;;22.00;55.60;;;;;;4965856;28;20569;-72
2022/06/17 06:53:37;;;;;;;29.97;27.97;;;22.10;55.30;;;;;;4969619;28;20508;-71
2022/06/17 06:56:06;;;;;;;30.63;28.83;;;22.20;55.10;;;;;;4958068;28;20539;-73
2022/06/17 06:58:33;;;;;;;27.40;25.90;;;22.20;55.20;;;;;;4976736;28;20572;-72
2022/06/17 07:01:00;;;;;;;29.00;27.30;;;22.30;55.00;;;;;;4971919;28;20463;-71
2022/06/17 07:03:30;;;;;;;28.93;27.20;;;22.40;54.40;;;;;;4967856;28;20486;-73
2022/06/17 07:05:59;;;;;;;28.10;26.40;;;22.50;54.10;;;;;;4970056;28;20466;-71
2022/06/17 07:08:28;;;;;;;28.50;26.90;;;22.40;54.00;;;;;;4969741;28;21035;-71
2022/06/17 07:10:59;;;;;;;28.03;26.43;;;22.30;54.60;;;;;;4969196;28;20602;-72
2022/06/17 07:13:28;;;;;;;30.23;28.47;;;22.40;54.50;;;;;;4958717;28;20492;-72
2022/06/17 07:15:55;;;;;;;27.63;25.73;;;22.50;54.50;;;;;;4964880;28;20462;-72
2022/06/17 07:18:24;;;;;;;27.10;25.50;;;22.50;54.20;;;;;;4968723;28;20590;-72
2022/06/17 07:20:54;;;;;;;27.93;26.33;;;22.60;54.70;;;;;;4969426;28;20460;-72
2022/06/17 07:23:25;;;;;;;29.13;27.20;;;22.70;54.30;;;;;;4962917;28;20477;-72
2022/06/17 07:25:52;;;;;;;29.00;27.30;;;22.80;54.00;;;;;;4967340;28;20501;-72
2022/06/17 07:28:25;;;;;;;28.83;26.73;;;22.90;53.90;;;;;;4969709;28;20499;-72
2022/06/17 07:30:56;;;;;;;30.00;28.10;;;23.00;53.70;;;;;;4969525;28;20472;-72
2022/06/17 07:33:26;;;;;;;28.43;26.20;;;23.10;53.70;;;;;;4959691;28;20477;-72
2022/06/17 07:35:55;;;;;;;29.53;27.77;;;23.20;53.30;;;;;;4962125;28;20957;-72
2022/06/17 07:41:13;;;;;;;28.37;26.73;;;23.60;53.20;;;;;;4967293;28;20469;-72
2022/06/17 07:43:40;;;;;;;30.70;28.90;;;23.60;52.80;;;;;;4959876;28;20484;-72
2022/06/17 07:46:10;;;;;;;29.10;27.40;;;23.80;52.30;;;;;;4969879;28;20481;-71
2022/06/17 07:48:38;;;;;;;28.57;26.73;;;23.90;52.20;;;;;;4969188;28;20460;-73
2022/06/17 07:51:06;;;;;;;30.10;28.17;;;23.90;52.60;;;;;;4964144;28;20816;-74
2022/06/17 07:53:35;;;;;;;29.33;27.23;;;24.00;52.00;;;;;;4960062;28;20541;-72
2022/06/17 07:56:03;;;;;;;29.87;27.90;;;24.10;52.00;;;;;;4970316;28;20544;-72
2022/06/17 07:58:31;;;;;;;29.40;27.70;;;24.00;52.20;;;;;;4969709;28;20545;-71
2022/06/17 08:00:58;;;;;;;28.97;27.27;;;24.00;52.40;;;;;;4969770;28;20463;-70
2022/06/17 08:03:26;;;;;;;32.33;30.50;;;24.20;52.10;;;;;;4956961;28;20485;-70
2022/06/17 08:05:56;;;;;;;30.20;28.17;;;24.30;52.20;;;;;;4967753;28;20556;-70
2022/06/17 08:08:25;;;;;;;30.67;28.77;;;24.30;51.70;;;;;;4968361;28;21055;-70
2022/06/17 08:10:54;;;;;;;30.00;28.00;;;24.20;52.30;;;;;;4969293;28;20538;-70
2022/06/17 08:13:22;;;;;;;30.70;28.90;;;24.30;52.10;;;;;;4963253;28;20488;-71
2022/06/17 08:15:50;;;;;;;29.90;28.00;;;24.40;52.20;;;;;;4967593;28;20491;-71
2022/06/17 08:18:24;;;;;;;30.63;28.80;;;24.50;51.50;;;;;;4968094;28;20462;-72
2022/06/17 08:20:52;;;;;;;29.27;27.47;;;24.40;51.70;;;;;;4969603;28;20529;-72
2022/06/17 08:23:21;;;;;;;32.20;30.10;;;24.60;51.50;;;;;;4965364;28;20479;-71
2022/06/17 08:25:48;;;;;;;30.03;28.33;;;24.60;50.30;;;;;;4963841;28;20471;-70
2022/06/17 08:28:16;;;;;;;30.07;28.00;;;24.60;49.50;;;;;;4966051;28;20541;-70
2022/06/17 08:30:46;;;;;;;29.27;27.60;;;24.60;49.80;;;;;;4967762;28;20469;-70
2022/06/17 08:33:13;;;;;;;30.20;28.50;;;24.60;49.60;;;;;;4973119;28;20452;-71
2022/06/17 08:35:43;;;;;;;30.20;28.00;;;24.70;50.00;;;;;;4970854;28;20553;-70
2022/06/17 08:38:15;;;;;;;29.60;27.80;;;24.60;50.20;;;;;;4972743;28;20561;-71
2022/06/17 08:40:54;;;;;;;32.47;30.47;;;24.80;48.90;;;;;;4972075;28;20557;-71
2022/06/17 08:43:45;;;;;;;28.47;26.87;;;24.80;48.60;;;;;;4963917;28;20532;-70
2022/06/17 08:46:18;;;;;;;31.37;29.60;;;24.90;48.40;;;;;;4963809;28;20481;-70
2022/06/17 08:49:13;;;;;;;28.90;27.13;;;25.00;48.90;;;;;;4970389;28;20469;-71
2022/06/17 08:51:55;;;;;;;28.53;26.90;;;25.10;48.60;;;;;;4973048;28;20467;-71
2022/06/17 08:54:37;;;;;;;28.40;26.70;;;25.30;47.20;;;;;;4970142;28;20562;-71
2022/06/17 08:57:12;;;;;;;29.30;27.60;;;25.40;46.30;;;;;;4968270;28;20541;-70
2022/06/17 09:00:06;;;;;;;29.07;27.37;;;25.50;45.40;;;;;;4970291;28;20545;-71
2022/06/17 09:03:04;;;;;;;30.97;29.07;;;25.40;45.80;;;;;;4965988;28;20489;-70
2022/06/17 09:05:43;;;;;;;30.67;28.87;;;25.10;46.70;;;;;;4965008;28;20495;-70
2022/06/17 09:08:24;;;;;;;32.27;29.93;;;25.10;46.80;;;;;;4971107;28;20489;-73
2022/06/17 09:11:07;;;;;;;29.10;27.47;;;25.10;46.90;;;;;;4967122;28;20470;-71
2022/06/17 09:13:42;;;;;;;29.50;27.80;;;25.30;46.90;;;;;;4971352;28;20971;-71
2022/06/17 09:16:15;;;;;;;28.60;26.90;;;25.30;46.80;;;;;;4968328;28;21015;-70
2022/06/17 09:18:45;;;;;;;29.30;27.60;;;25.40;46.80;;;;;;4960847;28;21184;-70
2022/06/17 09:21:16;;;;;;;30.67;28.87;;;25.50;46.30;;;;;;4963175;28;20467;-70
2022/06/17 09:23:43;;;;;;;31.20;29.37;;;25.60;46.00;;;;;;4967505;28;20565;-71
2022/06/17 09:26:29;;;;;;;30.00;28.30;;;25.70;45.60;;;;;;4971381;28;20514;-70
2022/06/17 09:29:00;;;;;;;31.17;29.37;;;25.90;45.60;;;;;;4964010;28;20467;-70
2022/06/17 09:31:44;;;;;;;31.63;29.83;;;25.90;45.20;;;;;;4970757;28;20459;-70
2022/06/17 09:34:18;;;;;;;30.50;28.70;;;26.10;45.00;;;;;;4970954;28;20546;-70
2022/06/17 09:36:50;;;;;;;30.37;28.47;;;26.20;44.40;;;;;;4968758;28;20475;-69
2022/06/17 09:39:24;;;;;;;32.33;30.53;;;26.10;44.40;;;;;;4969593;28;21036;-72
2022/06/17 09:41:56;;;;;;;27.87;26.37;;;26.00;44.10;;;;;;4960220;28;21999;-71
2022/06/17 09:44:30;;;;;;;30.23;28.23;;;26.10;44.10;;;;;;4969380;28;20530;-72
2022/06/17 09:47:04;;;;;;;30.43;28.40;;;25.90;44.50;;;;;;4974454;28;20732;-70
2022/06/17 09:49:39;;;;;;;29.37;27.67;;;26.00;44.20;;;;;;4969465;28;20475;-71
2022/06/17 09:52:11;;;;;;;29.17;27.37;;;25.80;44.00;;;;;;4967674;28;20538;-70
2022/06/17 09:54:47;;;;;;;30.67;28.77;;;25.80;44.10;;;;;;4966161;28;20490;-71
2022/06/17 09:57:19;;;;;;;30.50;28.60;;;26.00;44.50;;;;;;4969318;28;20593;-71
2022/06/17 09:59:50;;;;;;;34.47;32.67;;;26.20;44.00;;;;;;4964699;28;20550;-74
2022/06/17 10:02:34;;;;;;;30.00;28.20;;;26.30;43.50;;;;;;4967319;28;21152;-74
2022/06/17 10:05:11;;;;;;;29.93;28.13;;;26.40;44.00;;;;;;4969456;28;20567;-72
2022/06/17 10:07:49;;;;;;;30.60;28.70;;;26.20;43.50;;;;;;4969567;28;20569;-71
2022/06/17 10:10:25;;;;;;;30.80;28.93;;;26.20;43.20;;;;;;4961620;28;21003;-72
2022/06/17 10:13:07;;;;;;;31.53;29.70;;;26.30;43.30;;;;;;4968838;28;20537;-71
2022/06/17 10:15:41;;;;;;;29.90;28.13;;;26.30;42.70;;;;;;4968758;28;20895;-72
2022/06/17 10:18:33;;;;;;;30.93;29.10;;;26.30;42.60;;;;;;4968409;28;20479;-73
2022/06/17 10:21:15;;;;;;;30.80;28.63;;;26.40;42.30;;;;;;4965093;28;20456;-73
2022/06/17 10:23:49;;;;;;;32.23;30.00;;;26.50;42.20;;;;;;4967245;28;20480;-73
2022/06/17 10:26:29;;;;;;;32.13;29.73;;;26.50;42.00;;;;;;4969648;28;20492;-73
2022/06/17 10:29:30;;;;;;;30.30;28.20;;;26.50;42.20;;;;;;4967454;28;20459;-72
2022/06/17 10:31:59;;;;;;;29.37;27.40;;;26.60;42.00;;;;;;4960548;28;20557;-73
2022/06/17 10:34:28;;;;;;;29.07;27.27;;;26.70;42.10;;;;;;4968146;28;20479;-72
2022/06/17 10:37:00;;;;;;;29.17;27.37;;;27.00;42.10;;;;;;4968457;28;20481;-74
2022/06/17 10:39:30;;;;;;;32.10;30.03;;;27.10;41.10;;;;;;4960679;28;20549;-71
2022/06/17 10:41:58;;;;;;;29.20;27.40;;;27.00;40.60;;;;;;4954676;28;20560;-74
2022/06/17 10:44:29;;;;;;;30.17;28.40;;;27.00;40.60;;;;;;4965619;28;20604;-78
2022/06/17 10:47:00;;;;;;;30.30;28.40;;;26.90;40.80;;;;;;4969283;28;20488;-72
2022/06/17 10:49:36;;;;;;;30.80;28.90;;;26.90;40.80;;;;;;4959092;28;20526;-79
2022/06/17 10:52:19;;;;;;;29.03;27.33;;;27.10;40.50;;;;;;4966999;28;20460;-79
2022/06/17 10:54:49;;;;;;;30.40;28.60;;;27.20;40.10;;;;;;4967796;28;20499;-76
2022/06/17 10:57:24;;;;;;;29.97;28.27;;;27.20;40.70;;;;;;4968794;28;21017;-74
2022/06/17 10:59:53;;;;;;;32.70;30.63;;;27.30;40.30;;;;;;4963688;28;21046;-74
2022/06/17 11:02:27;;;;;;;29.60;27.70;;;27.50;40.10;;;;;;4966516;28;20874;-75
2022/06/17 11:04:56;;;;;;;30.90;28.97;;;27.60;40.30;;;;;;4963594;28;20491;-74
2022/06/17 11:07:30;;;;;;;31.23;29.23;;;27.70;39.50;;;;;;4969569;28;20586;-75
2022/06/17 11:10:01;;;;;;;29.30;27.60;;;27.50;39.70;;;;;;4968416;28;20457;-73
2022/06/17 11:12:34;;;;;;;29.97;28.07;;;27.40;39.80;;;;;;4966181;28;20489;-71
2022/06/17 11:15:18;;;;;;;31.37;29.27;;;27.50;39.90;;;;;;4967631;28;21184;-73
2022/06/17 11:17:47;;;;;;;29.03;27.27;;;27.60;39.50;;;;;;4966857;28;20517;-73
2022/06/17 11:20:23;;;;;;;31.07;29.07;;;27.70;38.40;;;;;;4954486;28;21119;-72
2022/06/17 11:22:54;;;;;;;30.20;28.37;;;27.80;38.30;;;;;;4961492;28;20524;-73
2022/06/17 11:25:25;;;;;;;30.93;28.50;;;27.90;39.30;;;;;;4967268;28;20550;-72
2022/06/17 11:27:56;;;;;;;29.70;28.00;;;28.10;38.50;;;;;;4966245;28;20491;-77
2022/06/17 11:30:29;;;;;;;33.07;30.77;;;28.10;38.60;;;;;;4968555;28;20529;-72
2022/06/17 11:32:57;;;;;;;30.60;28.70;;;28.20;38.90;;;;;;4967242;28;20481;-73
2022/06/17 11:35:35;;;;;;;30.90;28.90;;;28.30;39.30;;;;;;4969043;28;20519;-77
2022/06/17 11:38:04;;;;;;;30.07;28.20;;;28.40;37.50;;;;;;4966128;28;20565;-73
2022/06/17 11:40:36;;;;;;;29.83;28.00;;;28.50;37.90;;;;;;4960749;28;20491;-74
2022/06/17 11:43:08;;;;;;;32.93;30.93;;;28.40;37.50;;;;;;4968139;28;20474;-74
2022/06/17 11:45:41;;;;;;;31.90;29.90;;;28.30;36.60;;;;;;4967956;28;20459;-74
2022/06/17 11:48:14;;;;;;;31.87;29.87;;;28.20;36.60;;;;;;4966657;28;20525;-74
2022/06/17 11:50:42;;;;;;;36.20;33.93;;;28.00;36.60;;;;;;4961316;28;20890;-77
2022/06/17 11:53:13;;;;;;;29.80;28.00;;;28.00;37.30;;;;;;4963578;28;20561;-75
2022/06/17 11:55:44;;;;;;;30.23;28.33;;;27.90;36.60;;;;;;4968087;28;20534;-74
2022/06/17 11:58:11;;;;;;;32.10;30.10;;;28.00;36.20;;;;;;4967650;28;20466;-74
2022/06/17 12:00:48;;;;;;;30.30;28.50;;;28.00;36.60;;;;;;4962701;28;20450;-75
2022/06/17 12:03:18;;;;;;;34.57;32.67;;;28.10;36.00;;;;;;4967100;28;20537;-74
2022/06/17 12:05:57;;;;;;;30.17;28.30;;;28.20;36.20;;;;;;4966097;28;20463;-78
2022/06/17 12:08:28;;;;;;;28.87;27.07;;;28.20;36.40;;;;;;4969642;28;20541;-75
2022/06/17 12:10:59;;;;;;;32.67;30.60;;;28.40;35.90;;;;;;4968222;28;20965;-75
2022/06/17 12:13:31;;;;;;;31.37;29.43;;;28.60;36.60;;;;;;4967762;28;20894;-72
2022/06/17 12:16:08;;;;;;;33.07;30.97;;;28.80;36.70;;;;;;4970562;28;20539;-75
2022/06/17 12:18:39;;;;;;;31.27;29.10;;;28.90;35.40;;;;;;4966434;28;20462;-75
2022/06/17 12:21:15;;;;;;;29.73;28.03;;;28.80;34.80;;;;;;4972415;28;20463;-76
2022/06/17 12:23:47;;;;;;;30.13;28.33;;;28.60;35.10;;;;;;4970795;28;20569;-74
2022/06/17 12:26:20;;;;;;;28.60;26.80;;;28.50;34.70;;;;;;4972036;28;20486;-74
2022/06/17 12:28:59;;;;;;;31.23;29.23;;;28.50;35.10;;;;;;4969669;28;20493;-71
2022/06/17 12:31:37;;;;;;;29.73;27.97;;;28.30;34.60;;;;;;4970679;28;20549;-72
2022/06/17 12:34:15;;;;;;;29.40;27.70;;;28.20;35.10;;;;;;4971507;28;20455;-70
2022/06/17 12:36:47;;;;;;;30.23;28.53;;;28.40;35.00;;;;;;4972341;28;20542;-75
2022/06/17 12:39:23;;;;;;;29.20;27.50;;;28.70;34.30;;;;;;4965087;28;20482;-70
2022/06/17 12:41:58;;;;;;;36.27;34.47;;;28.60;34.60;;;;;;4970513;28;20462;-71
2022/06/17 12:44:38;;;;;;;29.60;27.90;;;28.70;35.00;;;;;;4972685;28;20560;-74
2022/06/17 12:47:15;;;;;;;30.07;28.27;;;28.80;33.90;;;;;;4968827;28;20474;-73
2022/06/17 12:55:43;;;;;;;34.00;32.10;;;29.30;33.90;;;;;;4962974;28;20545;-73
2022/06/17 12:58:22;;;;;;;28.13;26.40;;;29.60;33.50;;;;;;4962256;28;20514;-72
2022/06/17 13:00:52;;;;;;;28.80;27.10;;;29.50;33.60;;;;;;4968043;28;20982;-71